Knotts Island, North Carolina
Current Conditions -  °F | °C
As of 12:35 AM on Monday 20 Oct 2014 (Local Time) from KONX Reporting Station
Clear Clear  
Wind Chill: 45°   Ceiling: Unl
Heat Index: 45°   Visibility: 10mi
Dew Point: 41°   Wind: 0mph
Humidity: 84%   Direction: NA
Pressure: 30.14"   Gusts: NA
Location:  36.51°N, 75.92°W
Report Text: KONX 200435Z AUTO 00000KT 10SM CLR 07/05 A3014 RMK AO2 T00730048
Loading
Personal Weather Stations






























Interactive Weather Map
Tropical Storm Tracking
New forecast layout! Learn more

10-Day Weather Forecast

Advertisements
Track Severe Weather on mobile